Time;durP1;ratioP1;P1;durP2;ratioP2;P2;SDS_P1;SDS_P2;PMS_P1;PMS_P2;Temp;Humidity;BMP_temperature;BMP_pressure;BME280_temperature;BME280_humidity;BME280_pressure;Samples;Min_cycle;Max_cycle;Signal;HPM_P1;HPM_P2
2023/07/19 00:01:13;;;;;;;9.32;3.33;;;;;;;;;;6169997;23;20037;-95
2023/07/19 00:03:40;;;;;;;10.88;4.25;;;;;;;;;;6168204;23;20193;-94
2023/07/19 00:06:06;;;;;;;9.23;3.75;;;;;;;;;;6167668;23;20009;-95
2023/07/19 00:08:32;;;;;;;9.48;3.40;;;;;;;;;;6196957;22;20016;-95
2023/07/19 00:11:01;;;;;;;7.47;3.20;;;;;;;;;;6195380;23;20000;-95
2023/07/19 00:13:30;;;;;;;5.72;3.15;;;;;;;;;;6169445;23;20019;-96
2023/07/19 00:16:17;;;;;;;6.38;2.85;;;;;;;;;;6169338;23;20103;-94
2023/07/19 00:18:43;;;;;;;6.40;3.22;;;;;;;;;;6219759;23;20019;-96
2023/07/19 00:21:10;;;;;;;6.60;3.50;;;;;;;;;;6168219;23;20597;-95
2023/07/19 00:23:38;;;;;;;4.80;3.10;;;;;;;;;;6192564;23;20004;-95
2023/07/19 00:26:04;;;;;;;15.18;4.40;;;;;;;;;;6168876;23;20009;-95
2023/07/19 00:28:31;;;;;;;9.40;3.72;;;;;;;;;;6167820;23;20403;-95
2023/07/19 00:31:03;;;;;;;10.20;4.03;;;;;;;;;;6170111;23;20427;-95
2023/07/19 00:33:29;;;;;;;9.30;4.00;;;;;;;;;;6193350;23;20004;-95
2023/07/19 00:36:01;;;;;;;9.02;4.25;;;;;;;;;;6193630;23;20009;-96
2023/07/19 00:38:27;;;;;;;7.75;3.90;;;;;;;;;;6171464;23;20019;-96
2023/07/19 00:40:53;;;;;;;9.57;3.80;;;;;;;;;;6169362;23;20012;-96
2023/07/19 00:43:20;;;;;;;9.38;3.70;;;;;;;;;;6169585;23;20058;-96
2023/07/19 00:45:53;;;;;;;10.80;3.78;;;;;;;;;;6193691;23;20009;-96
2023/07/19 00:48:22;;;;;;;11.45;3.95;;;;;;;;;;6195011;23;20017;-94
2023/07/19 00:50:49;;;;;;;5.40;3.40;;;;;;;;;;6170324;23;20036;-95
2023/07/19 00:53:20;;;;;;;6.28;3.33;;;;;;;;;;6169524;23;20335;-96
2023/07/19 00:55:50;;;;;;;7.35;4.03;;;;;;;;;;6168883;23;20009;-96
2023/07/19 00:58:17;;;;;;;5.68;3.78;;;;;;;;;;6165469;23;20162;-96
2023/07/19 01:00:52;;;;;;;8.48;3.90;;;;;;;;;;6191512;23;20004;-96
2023/07/19 01:03:20;;;;;;;9.85;3.90;;;;;;;;;;6195598;23;20009;-96
2023/07/19 01:05:46;;;;;;;11.02;3.53;;;;;;;;;;6192518;23;20020;-96
2023/07/19 01:08:20;;;;;;;6.50;3.53;;;;;;;;;;6213402;22;20042;-96
2023/07/19 01:10:47;;;;;;;10.98;3.40;;;;;;;;;;6197498;23;20012;-96
2023/07/19 01:13:14;;;;;;;9.25;4.50;;;;;;;;;;6195380;23;20536;-96
2023/07/19 01:15:41;;;;;;;6.90;4.10;;;;;;;;;;6172492;23;20012;-96
2023/07/19 01:18:14;;;;;;;5.40;3.88;;;;;;;;;;6195324;23;20039;-96
2023/07/19 01:20:40;;;;;;;8.25;4.07;;;;;;;;;;6194873;23;20017;-95
2023/07/19 01:23:09;;;;;;;10.07;4.68;;;;;;;;;;6169386;23;20004;-96
2023/07/19 01:25:36;;;;;;;13.07;4.60;;;;;;;;;;6170392;23;20095;-96
2023/07/19 01:28:06;;;;;;;11.15;4.03;;;;;;;;;;6169786;23;20100;-95
2023/07/19 01:30:35;;;;;;;8.65;3.55;;;;;;;;;;6194773;23;20035;-96
2023/07/19 01:33:02;;;;;;;6.97;4.05;;;;;;;;;;6172048;23;20024;-96
2023/07/19 01:35:28;;;;;;;10.23;3.95;;;;;;;;;;6195724;23;20083;-95
2023/07/19 01:37:58;;;;;;;7.15;4.10;;;;;;;;;;6194598;23;20008;-95
2023/07/19 01:40:24;;;;;;;8.10;4.35;;;;;;;;;;6170362;23;20012;-95
2023/07/19 01:42:51;;;;;;;11.95;4.13;;;;;;;;;;6221545;23;20016;-95
2023/07/19 01:45:23;;;;;;;7.93;4.30;;;;;;;;;;6171039;23;20019;-96
2023/07/19 01:47:50;;;;;;;7.90;3.50;;;;;;;;;;6195585;23;20005;-95
2023/07/19 01:50:16;;;;;;;9.88;3.70;;;;;;;;;;6170748;23;20039;-95
2023/07/19 01:52:45;;;;;;;12.88;3.67;;;;;;;;;;6171145;23;20069;-95
2023/07/19 01:55:12;;;;;;;6.45;3.17;;;;;;;;;;6171533;23;20004;-95
2023/07/19 01:57:38;;;;;;;8.00;3.90;;;;;;;;;;6195726;23;20071;-95
2023/07/19 02:00:06;;;;;;;8.02;4.00;;;;;;;;;;6172538;23;20015;-94
2023/07/19 02:02:39;;;;;;;7.65;3.50;;;;;;;;;;6173826;23;20013;-95
2023/07/19 02:05:08;;;;;;;8.90;4.18;;;;;;;;;;6171919;23;20494;-95
2023/07/19 02:07:35;;;;;;;7.47;4.15;;;;;;;;;;6204730;22;20094;-94
2023/07/19 02:10:19;;;;;;;9.70;4.60;;;;;;;;;;6210589;22;20020;-95
2023/07/19 02:12:45;;;;;;;7.63;5.20;;;;;;;;;;6204329;23;20004;-94
2023/07/19 02:15:11;;;;;;;9.10;5.00;;;;;;;;;;6179122;23;20008;-94
2023/07/19 02:17:37;;;;;;;13.55;4.75;;;;;;;;;;6179157;23;20020;-94
2023/07/19 02:20:04;;;;;;;6.72;4.85;;;;;;;;;;6181608;23;20009;-95
2023/07/19 02:22:30;;;;;;;13.65;5.05;;;;;;;;;;6183176;23;20012;-95
2023/07/19 02:24:56;;;;;;;11.57;4.82;;;;;;;;;;6209850;23;20080;-94
2023/07/19 02:27:23;;;;;;;8.63;4.68;;;;;;;;;;6183295;23;20012;-94
2023/07/19 02:29:52;;;;;;;9.25;4.90;;;;;;;;;;6186711;23;20016;-94
2023/07/19 02:32:21;;;;;;;8.85;4.82;;;;;;;;;;6185477;23;19996;-94
2023/07/19 02:34:56;;;;;;;14.00;4.75;;;;;;;;;;6183222;23;20008;-94
2023/07/19 02:37:23;;;;;;;15.73;4.88;;;;;;;;;;6183270;23;20012;-92
2023/07/19 02:39:49;;;;;;;7.35;4.82;;;;;;;;;;6182100;23;20028;-94
2023/07/19 02:42:17;;;;;;;7.88;5.47;;;;;;;;;;6228944;23;20012;-95
2023/07/19 02:44:43;;;;;;;13.10;5.68;;;;;;;;;;6176356;23;20012;-95
2023/07/19 02:47:09;;;;;;;10.48;5.35;;;;;;;;;;6175672;23;20013;-93
2023/07/19 02:49:35;;;;;;;9.93;4.93;;;;;;;;;;6174961;23;20095;-94
2023/07/19 02:52:04;;;;;;;12.85;5.63;;;;;;;;;;6198890;23;20111;-94
2023/07/19 02:54:30;;;;;;;10.77;5.40;;;;;;;;;;6176153;23;20043;-94
2023/07/19 02:57:06;;;;;;;17.13;5.63;;;;;;;;;;6175129;23;20012;-94
2023/07/19 02:59:32;;;;;;;14.82;5.88;;;;;;;;;;6174729;23;20435;-94
2023/07/19 03:01:58;;;;;;;14.48;5.00;;;;;;;;;;6175871;23;20350;-95
2023/07/19 03:04:24;;;;;;;10.88;5.30;;;;;;;;;;6172460;23;20017;-96
2023/07/19 03:06:50;;;;;;;12.82;4.53;;;;;;;;;;6169469;23;20004;-96
2023/07/19 03:09:29;;;;;;;7.78;4.65;;;;;;;;;;6205018;22;20009;-96
2023/07/19 03:11:55;;;;;;;10.52;4.25;;;;;;;;;;6169727;23;20028;-96
2023/07/19 03:14:22;;;;;;;9.30;4.00;;;;;;;;;;6167862;23;20427;-95
2023/07/19 03:16:48;;;;;;;11.35;4.40;;;;;;;;;;6192178;23;20004;-95
2023/07/19 03:19:16;;;;;;;10.68;4.72;;;;;;;;;;6166603;23;20004;-95
2023/07/19 03:21:43;;;;;;;7.00;4.82;;;;;;;;;;6194608;23;20028;-95
2023/07/19 03:24:11;;;;;;;8.75;5.15;;;;;;;;;;6168863;23;20016;-96
2023/07/19 03:26:37;;;;;;;10.55;5.20;;;;;;;;;;6192462;23;20012;-96
2023/07/19 03:29:03;;;;;;;12.95;4.40;;;;;;;;;;6166564;23;20461;-96
2023/07/19 03:31:33;;;;;;;13.27;4.75;;;;;;;;;;6168385;23;20430;-96
2023/07/19 03:34:02;;;;;;;9.10;4.35;;;;;;;;;;6191139;23;20007;-96
2023/07/19 03:36:28;;;;;;;11.48;4.40;;;;;;;;;;6168869;23;20008;-95
2023/07/19 03:38:55;;;;;;;11.10;4.78;;;;;;;;;;6193155;23;20119;-95
2023/07/19 03:41:21;;;;;;;7.78;4.95;;;;;;;;;;6168105;23;20012;-95
2023/07/19 03:43:48;;;;;;;12.43;4.80;;;;;;;;;;6167084;23;20040;-95
2023/07/19 03:46:23;;;;;;;9.45;4.20;;;;;;;;;;6167438;23;20031;-96
2023/07/19 03:48:49;;;;;;;10.98;4.90;;;;;;;;;;6191883;23;20004;-94
2023/07/19 03:51:19;;;;;;;6.13;4.43;;;;;;;;;;6167255;23;20481;-95
2023/07/19 03:53:45;;;;;;;7.65;4.97;;;;;;;;;;6166049;23;20079;-95
2023/07/19 03:56:11;;;;;;;9.20;5.53;;;;;;;;;;6167240;23;20011;-96
2023/07/19 03:58:39;;;;;;;9.38;5.35;;;;;;;;;;6167238;23;20636;-95
2023/07/19 04:01:13;;;;;;;15.45;6.43;;;;;;;;;;6171097;23;20104;-96
2023/07/19 04:03:43;;;;;;;10.63;5.53;;;;;;;;;;6168267;23;20017;-96
2023/07/19 04:06:09;;;;;;;8.55;4.82;;;;;;;;;;6167233;23;20012;-95
2023/07/19 04:08:49;;;;;;;8.52;5.28;;;;;;;;;;6170206;22;20009;-95
2023/07/19 04:11:16;;;;;;;9.35;5.65;;;;;;;;;;6192197;23;20094;-95
2023/07/19 04:13:46;;;;;;;10.80;5.45;;;;;;;;;;6170977;23;19992;-94
2023/07/19 04:16:19;;;;;;;12.65;6.78;;;;;;;;;;6193056;23;20005;-95
2023/07/19 04:18:48;;;;;;;15.02;6.20;;;;;;;;;;6194105;23;20123;-94
2023/07/19 04:21:15;;;;;;;13.55;6.75;;;;;;;;;;6167869;23;20438;-94
2023/07/19 04:23:41;;;;;;;11.43;6.10;;;;;;;;;;6167471;23;20017;-94
2023/07/19 04:26:10;;;;;;;13.02;6.03;;;;;;;;;;6167093;23;20039;-95
2023/07/19 04:28:43;;;;;;;11.80;6.25;;;;;;;;;;6167426;23;20009;-96
2023/07/19 04:31:10;;;;;;;11.75;5.93;;;;;;;;;;6193778;23;20004;-94
2023/07/19 04:33:36;;;;;;;11.68;6.43;;;;;;;;;;6168168;23;20068;-95
2023/07/19 04:36:10;;;;;;;17.25;6.90;;;;;;;;;;6168153;23;20033;-94
2023/07/19 04:38:38;;;;;;;12.80;5.43;;;;;;;;;;6192449;23;20009;-93
2023/07/19 04:41:07;;;;;;;17.27;6.20;;;;;;;;;;6167448;23;20012;-95
2023/07/19 04:43:35;;;;;;;11.05;5.15;;;;;;;;;;6169381;23;20055;-94
2023/07/19 04:46:11;;;;;;;8.48;5.20;;;;;;;;;;6169407;23;20013;-95
2023/07/19 04:48:38;;;;;;;10.27;5.95;;;;;;;;;;6170107;23;20443;-94
2023/07/19 04:51:06;;;;;;;8.68;5.60;;;;;;;;;;6193625;23;20499;-95
2023/07/19 04:53:32;;;;;;;12.77;5.43;;;;;;;;;;6169992;23;20008;-95
2023/07/19 04:56:02;;;;;;;12.45;5.40;;;;;;;;;;6169797;23;20020;-94
2023/07/19 04:58:28;;;;;;;8.82;4.75;;;;;;;;;;6169969;23;20238;-94
2023/07/19 05:00:56;;;;;;;12.57;5.40;;;;;;;;;;6193363;23;20015;-94
2023/07/19 05:03:25;;;;;;;11.73;4.72;;;;;;;;;;6170271;23;20012;-94
2023/07/19 05:05:53;;;;;;;8.38;4.80;;;;;;;;;;6168196;23;20020;-94
2023/07/19 05:08:19;;;;;;;9.90;4.35;;;;;;;;;;6169903;23;20032;-94
2023/07/19 05:11:03;;;;;;;12.82;4.85;;;;;;;;;;6193304;22;20024;-94
2023/07/19 05:13:29;;;;;;;6.57;4.70;;;;;;;;;;6224286;23;20015;-93
2023/07/19 05:16:03;;;;;;;9.35;4.78;;;;;;;;;;6223709;23;20000;-93
2023/07/19 05:18:49;;;;;;;;;;;;;;;;;;;;;
2023/07/19 05:21:19;;;;;;;6.13;3.33;;;;;;;;;;6255185;23;20036;-95
2023/07/19 05:23:46;;;;;;;4.63;3.40;;;;;;;;;;6204873;23;20012;-94
2023/07/19 05:26:33;;;;;;;8.90;3.25;;;;;;;;;;6203163;23;20019;-93
2023/07/19 05:32:07;;;;;;;;;;;;;;;;;;;;;
2023/07/19 05:35:05;;;;;;;8.50;3.72;;;;;;;;;;6240940;23;20016;-94
2023/07/19 05:40:28;;;;;;;11.27;4.13;;;;;;;;;;6154880;23;20022;-93
2023/07/19 05:42:56;;;;;;;7.70;3.88;;;;;;;;;;6233060;23;19996;-93
2023/07/19 05:45:31;;;;;;;8.30;3.28;;;;;;;;;;6228163;23;20005;-95
2023/07/19 05:48:01;;;;;;;6.90;3.43;;;;;;;;;;6253446;23;20008;-92
2023/07/19 05:50:31;;;;;;;15.93;3.75;;;;;;;;;;6223345;23;20235;-93
2023/07/19 05:53:01;;;;;;;9.02;3.75;;;;;;;;;;6199003;23;20016;-95
2023/07/19 05:55:27;;;;;;;6.30;3.42;;;;;;;;;;6200471;23;20035;-94
2023/07/19 05:57:58;;;;;;;10.75;4.20;;;;;;;;;;6227310;23;20008;-94
2023/07/19 06:00:40;;;;;;;9.82;4.30;;;;;;;;;;6202084;23;20016;-93
2023/07/19 06:03:23;;;;;;;9.20;4.00;;;;;;;;;;6249767;23;20012;-93
2023/07/19 06:05:50;;;;;;;8.77;3.47;;;;;;;;;;6198307;23;20036;-94
2023/07/19 06:08:18;;;;;;;7.65;3.90;;;;;;;;;;6197911;23;20327;-92
2023/07/19 06:10:44;;;;;;;12.18;3.78;;;;;;;;;;6187360;22;20027;-94
2023/07/19 06:13:14;;;;;;;11.15;3.92;;;;;;;;;;6170341;23;20544;-94
2023/07/19 06:15:40;;;;;;;5.65;3.03;;;;;;;;;;6169474;23;20071;-94
2023/07/19 06:18:07;;;;;;;5.57;3.03;;;;;;;;;;6171589;23;20009;-95
2023/07/19 06:20:33;;;;;;;7.28;2.85;;;;;;;;;;6199177;23;20004;-95
2023/07/19 06:22:59;;;;;;;7.00;2.40;;;;;;;;;;6174210;23;20040;-94
2023/07/19 06:25:26;;;;;;;6.28;2.38;;;;;;;;;;6174270;23;20086;-95
2023/07/19 06:27:53;;;;;;;7.30;2.30;;;;;;;;;;6200561;23;20000;-94
2023/07/19 06:30:21;;;;;;;7.05;2.08;;;;;;;;;;6196537;23;20004;-93
2023/07/19 06:32:54;;;;;;;4.65;2.28;;;;;;;;;;6220234;23;20116;-94
2023/07/19 06:35:24;;;;;;;4.63;2.53;;;;;;;;;;6171860;23;20427;-95
2023/07/19 06:37:51;;;;;;;10.05;2.88;;;;;;;;;;6193830;23;20016;-95
2023/07/19 06:40:20;;;;;;;6.63;2.72;;;;;;;;;;6196935;23;20087;-95
2023/07/19 06:42:46;;;;;;;3.30;2.40;;;;;;;;;;6194777;23;20074;-94
2023/07/19 06:45:12;;;;;;;3.90;2.70;;;;;;;;;;6194441;23;20004;-94
2023/07/19 06:47:45;;;;;;;9.50;2.28;;;;;;;;;;6195214;23;20012;-94
2023/07/19 06:50:17;;;;;;;8.55;3.28;;;;;;;;;;6143475;23;20001;-93
2023/07/19 06:53:01;;;;;;;5.85;2.45;;;;;;;;;;6149419;23;20436;-94
2023/07/19 06:55:57;;;;;;;9.30;2.53;;;;;;;;;;6125830;23;20048;-95
2023/07/19 06:58:28;;;;;;;12.32;2.30;;;;;;;;;;6132065;23;20068;-94
2023/07/19 07:01:05;;;;;;;2.92;2.25;;;;;;;;;;6129738;23;19993;-95
2023/07/19 07:03:35;;;;;;;6.47;2.90;;;;;;;;;;6151262;23;20009;-94
2023/07/19 07:06:32;;;;;;;8.55;2.63;;;;;;;;;;6129022;23;20037;-94
2023/07/19 07:09:03;;;;;;;2.65;2.17;;;;;;;;;;6117644;23;20040;-93
2023/07/19 07:11:41;;;;;;;5.15;2.55;;;;;;;;;;6183912;22;20017;-92
2023/07/19 07:14:10;;;;;;;7.43;2.40;;;;;;;;;;6182124;23;20012;-92
2023/07/19 07:47:48;;;;;;;9.98;2.65;;;;;;;;;;6288482;22;19926;-94
2023/07/19 07:50:15;;;;;;;7.40;2.22;;;;;;;;;;6286193;22;20053;-93
2023/07/19 07:52:52;;;;;;;;;;;;;;;;;;;;;
2023/07/19 07:55:18;;;;;;;7.03;2.10;;;;;;;;;;6283150;22;20034;-93
2023/07/19 07:57:45;;;;;;;6.43;2.22;;;;;;;;;;6257744;22;20445;-93
2023/07/19 08:00:21;;;;;;;8.60;2.08;;;;;;;;;;6280872;22;20260;-93
2023/07/19 08:02:49;;;;;;;6.75;2.22;;;;;;;;;;6253721;23;20016;-93
2023/07/19 08:05:15;;;;;;;4.40;1.90;;;;;;;;;;6226676;23;20013;-94
2023/07/19 08:07:41;;;;;;;4.85;2.10;;;;;;;;;;6227188;23;20450;-93
2023/07/19 08:10:08;;;;;;;5.20;2.00;;;;;;;;;;6251631;23;20011;-92
2023/07/19 08:12:35;;;;;;;4.38;1.92;;;;;;;;;;6227734;23;20008;-93
2023/07/19 08:15:04;;;;;;;4.90;1.88;;;;;;;;;;6229076;23;20388;-93
2023/07/19 08:17:30;;;;;;;4.82;1.70;;;;;;;;;;6229715;23;20023;-94
2023/07/19 08:19:59;;;;;;;3.88;1.60;;;;;;;;;;6231214;23;20023;-93
2023/07/19 08:22:33;;;;;;;4.95;1.92;;;;;;;;;;6231485;23;20068;-92
2023/07/19 08:25:02;;;;;;;3.03;1.88;;;;;;;;;;6258449;23;20031;-93
2023/07/19 08:30:15;;;;;;;6.78;2.15;;;;;;;;;;6235368;23;20008;-93
2023/07/19 08:35:50;;;;;;;3.45;1.90;;;;;;;;;;6181697;23;20013;-93
2023/07/19 08:38:16;;;;;;;7.00;1.80;;;;;;;;;;6242169;23;20039;-93
2023/07/19 08:40:50;;;;;;;4.78;1.85;;;;;;;;;;6258976;22;20677;-92
2023/07/19 08:43:29;;;;;;;3.90;1.70;;;;;;;;;;6258148;23;20091;-92
2023/07/19 08:46:00;;;;;;;3.17;1.67;;;;;;;;;;6262926;22;20012;-92
2023/07/19 08:48:56;;;;;;;6.28;1.60;;;;;;;;;;6260188;23;20024;-93
2023/07/19 08:51:35;;;;;;;3.45;1.67;;;;;;;;;;6261106;23;20012;-91
2023/07/19 08:54:15;;;;;;;4.38;1.83;;;;;;;;;;6264360;23;20014;-92
2023/07/19 08:56:42;;;;;;;5.30;1.85;;;;;;;;;;6237706;23;20008;-93
2023/07/19 08:59:08;;;;;;;3.33;1.45;;;;;;;;;;6255223;23;20004;-93
2023/07/19 09:01:55;;;;;;;4.97;1.50;;;;;;;;;;6250357;22;20094;-93
2023/07/19 09:04:24;;;;;;;4.40;1.70;;;;;;;;;;6258806;23;20036;-93
2023/07/19 09:07:13;;;;;;;3.95;1.88;;;;;;;;;;6258335;23;20034;-92
2023/07/19 09:09:57;;;;;;;2.85;1.42;;;;;;;;;;6238809;23;20010;-93
2023/07/19 09:12:24;;;;;;;13.18;2.47;;;;;;;;;;6260166;23;20000;-92
2023/07/19 09:15:11;;;;;;;7.13;1.92;;;;;;;;;;6236621;23;20011;-91
2023/07/19 09:18:00;;;;;;;9.45;2.42;;;;;;;;;;6258773;23;20446;-92
2023/07/19 09:20:28;;;;;;;4.82;2.22;;;;;;;;;;6264279;23;20015;-93
2023/07/19 09:22:56;;;;;;;5.03;1.98;;;;;;;;;;6253214;23;20008;-93
2023/07/19 09:25:26;;;;;;;4.53;1.88;;;;;;;;;;6253486;23;20012;-93
2023/07/19 09:27:53;;;;;;;5.45;1.90;;;;;;;;;;6250754;23;20009;-92
2023/07/19 09:30:20;;;;;;;8.18;2.40;;;;;;;;;;6227095;23;20354;-93
2023/07/19 09:32:58;;;;;;;2.67;1.88;;;;;;;;;;6229559;23;20099;-92
2023/07/19 09:36:15;;;;;;;;;;;;;;;;;;;;;
2023/07/19 09:39:03;;;;;;;8.20;1.80;;;;;;;;;;6206328;22;20007;-92
2023/07/19 09:41:29;;;;;;;6.65;1.92;;;;;;;;;;6265976;23;20103;-90
2023/07/19 09:43:56;;;;;;;4.28;1.70;;;;;;;;;;6238828;23;20009;-90
2023/07/19 09:46:27;;;;;;;3.65;2.13;;;;;;;;;;6257717;22;20020;-92
2023/07/19 09:49:25;;;;;;;3.95;1.85;;;;;;;;;;6263865;23;20027;-92
2023/07/19 09:55:03;;;;;;;7.25;1.85;;;;;;;;;;6141701;22;20032;-93
2023/07/19 09:57:32;;;;;;;3.70;1.65;;;;;;;;;;6240040;23;20557;-92
2023/07/19 10:12:53;;;;;;;8.30;1.58;;;;;;;;;;6053667;23;20058;-91
2023/07/19 10:15:30;;;;;;;7.00;1.67;;;;;;;;;;6049484;23;20151;-90
2023/07/19 10:18:45;;;;;;;2.33;1.38;;;;;;;;;;6155618;23;20013;-91
2023/07/19 10:21:06;;;;;;;13.00;3.10;;;;;;;;;;6155740;23;20230;-90
2023/07/19 10:23:34;;;;;;;4.53;2.08;;;;;;;;;;6233137;23;20008;-90
2023/07/19 10:26:06;;;;;;;4.57;1.85;;;;;;;;;;6248242;23;20379;-91
2023/07/19 10:28:32;;;;;;;2.28;1.38;;;;;;;;;;6250771;23;20011;-92
2023/07/19 10:30:59;;;;;;;5.50;1.73;;;;;;;;;;6249548;23;20015;-93
2023/07/19 10:33:34;;;;;;;6.60;1.65;;;;;;;;;;6247257;23;20027;-92
2023/07/19 10:36:04;;;;;;;3.45;1.50;;;;;;;;;;6249296;22;20043;-88
2023/07/19 10:38:31;;;;;;;2.80;1.60;;;;;;;;;;6246850;23;20500;-89
2023/07/19 10:41:07;;;;;;;7.30;1.48;;;;;;;;;;6244780;23;20408;-88
2023/07/19 10:43:37;;;;;;;4.65;1.25;;;;;;;;;;6244748;23;20074;-89
2023/07/19 10:46:12;;;;;;;5.97;1.25;;;;;;;;;;6245821;22;20048;-87
2023/07/19 10:48:38;;;;;;;3.13;1.30;;;;;;;;;;6245811;23;20020;-89
2023/07/19 10:51:10;;;;;;;4.47;1.35;;;;;;;;;;6220210;23;20373;-88
2023/07/19 10:53:47;;;;;;;1.50;1.20;;;;;;;;;;6218443;23;20008;-88
2023/07/19 10:56:18;;;;;;;2.28;1.30;;;;;;;;;;6218161;23;20080;-88
2023/07/19 10:58:44;;;;;;;2.05;1.27;;;;;;;;;;6242093;22;20015;-87
2023/07/19 11:01:11;;;;;;;2.63;1.40;;;;;;;;;;6242092;22;20019;-88
2023/07/19 11:03:38;;;;;;;3.80;1.48;;;;;;;;;;6242596;23;20030;-88
2023/07/19 11:06:08;;;;;;;6.50;1.27;;;;;;;;;;6210746;23;20012;-88
2023/07/19 11:08:35;;;;;;;4.75;1.40;;;;;;;;;;6239049;23;20012;-87
2023/07/19 11:11:01;;;;;;;2.67;1.10;;;;;;;;;;6215234;23;20863;-88
2023/07/19 11:13:27;;;;;;;2.35;1.23;;;;;;;;;;6216731;23;20009;-87
2023/07/19 11:15:55;;;;;;;5.55;1.20;;;;;;;;;;6214680;23;20008;-88
2023/07/19 11:18:28;;;;;;;3.65;1.00;;;;;;;;;;6229233;23;20460;-87
2023/07/19 11:20:55;;;;;;;3.70;1.40;;;;;;;;;;6240098;23;20362;-93
2023/07/19 11:23:21;;;;;;;3.90;1.52;;;;;;;;;;6252394;23;20026;-93
2023/07/19 11:25:47;;;;;;;2.72;1.33;;;;;;;;;;6252475;23;20018;-92
2023/07/19 11:28:14;;;;;;;2.97;0.98;;;;;;;;;;6248784;23;20020;-91
2023/07/19 11:30:40;;;;;;;1.20;1.02;;;;;;;;;;6248319;23;20005;-93
2023/07/19 11:33:28;;;;;;;0.80;0.60;;;;;;;;;;6252379;23;20059;-93
2023/07/19 11:35:53;;;;;;;1.92;1.10;;;;;;;;;;6253187;23;20012;-92
2023/07/19 11:38:20;;;;;;;1.77;0.82;;;;;;;;;;6229727;23;20016;-92
2023/07/19 11:40:46;;;;;;;2.80;0.90;;;;;;;;;;6255467;23;20000;-93
2023/07/19 11:43:13;;;;;;;1.83;1.08;;;;;;;;;;6254484;23;19992;-93
2023/07/19 11:45:39;;;;;;;1.38;0.80;;;;;;;;;;6250451;23;20034;-92
2023/07/19 11:48:05;;;;;;;2.10;0.90;;;;;;;;;;6251359;22;20051;-93
2023/07/19 11:50:33;;;;;;;2.88;1.20;;;;;;;;;;6225746;23;20451;-91
2023/07/19 11:53:03;;;;;;;2.78;1.00;;;;;;;;;;6252172;23;20004;-94
2023/07/19 11:55:30;;;;;;;2.80;0.80;;;;;;;;;;6252804;23;20027;-93
2023/07/19 11:58:03;;;;;;;2.95;0.90;;;;;;;;;;6250604;23;20015;-92
2023/07/19 12:00:30;;;;;;;2.72;1.30;;;;;;;;;;6225791;22;20357;-93
2023/07/19 12:02:56;;;;;;;4.75;1.73;;;;;;;;;;6248285;23;20342;-93
2023/07/19 12:05:23;;;;;;;2.92;1.00;;;;;;;;;;6248385;23;20011;-94
2023/07/19 12:07:50;;;;;;;3.30;1.10;;;;;;;;;;6246467;23;20012;-93
2023/07/19 12:10:17;;;;;;;3.60;1.30;;;;;;;;;;6247190;23;20011;-93
2023/07/19 12:12:44;;;;;;;3.35;1.35;;;;;;;;;;6251803;23;20447;-95
2023/07/19 12:15:12;;;;;;;1.55;0.95;;;;;;;;;;6248669;23;20004;-93
2023/07/19 12:17:38;;;;;;;2.42;0.80;;;;;;;;;;6238932;23;20008;-93
2023/07/19 12:20:06;;;;;;;1.30;0.90;;;;;;;;;;6239166;23;20054;-95
2023/07/19 12:22:32;;;;;;;4.05;1.02;;;;;;;;;;6240808;22;20491;-93
2023/07/19 12:24:58;;;;;;;2.97;0.90;;;;;;;;;;6242303;23;20047;-95
2023/07/19 12:27:26;;;;;;;1.35;0.98;;;;;;;;;;6219349;23;20027;-96
2023/07/19 12:29:52;;;;;;;1.35;0.93;;;;;;;;;;6221199;23;20426;-96
2023/07/19 12:32:18;;;;;;;3.10;1.15;;;;;;;;;;6221335;23;20068;-96
2023/07/19 12:34:49;;;;;;;2.88;0.80;;;;;;;;;;6247980;23;20102;-96
2023/07/19 12:37:24;;;;;;;1.88;1.15;;;;;;;;;;6244704;23;20008;-96
2023/07/19 12:39:52;;;;;;;7.40;2.38;;;;;;;;;;6245947;23;20054;-96
2023/07/19 12:42:18;;;;;;;1.98;0.90;;;;;;;;;;6217857;23;20034;-96
2023/07/19 12:44:44;;;;;;;0.70;0.70;;;;;;;;;;6240650;23;20014;-96
2023/07/19 12:47:10;;;;;;;3.03;0.80;;;;;;;;;;6241281;22;20012;-96
2023/07/19 12:49:36;;;;;;;1.65;0.90;;;;;;;;;;6216636;23;20009;-96
2023/07/19 12:52:03;;;;;;;2.50;0.65;;;;;;;;;;6215888;23;20012;-96
2023/07/19 12:54:31;;;;;;;1.80;0.90;;;;;;;;;;6216337;23;20008;-96
2023/07/19 12:57:05;;;;;;;0.75;0.68;;;;;;;;;;6240774;23;20005;-96
2023/07/19 12:59:32;;;;;;;1.70;0.90;;;;;;;;;;6214974;23;20020;-96
2023/07/19 13:01:58;;;;;;;1.13;0.93;;;;;;;;;;6221283;23;20012;-96
2023/07/19 13:04:24;;;;;;;3.40;0.85;;;;;;;;;;6219922;23;20036;-96
2023/07/19 13:06:54;;;;;;;1.38;0.80;;;;;;;;;;6244904;23;20039;-95
2023/07/19 13:09:23;;;;;;;2.45;0.70;;;;;;;;;;6244774;23;20008;-96
2023/07/19 13:11:49;;;;;;;1.52;1.13;;;;;;;;;;6246849;23;20595;-95
2023/07/19 13:14:18;;;;;;;2.78;0.68;;;;;;;;;;6218804;23;20012;-96
2023/07/19 13:16:45;;;;;;;1.25;0.80;;;;;;;;;;6246784;23;20427;-96
2023/07/19 13:19:13;;;;;;;3.13;0.70;;;;;;;;;;6222756;23;20011;-96
2023/07/19 13:21:39;;;;;;;3.13;0.90;;;;;;;;;;6247671;23;20071;-96
2023/07/19 13:24:09;;;;;;;4.03;1.15;;;;;;;;;;6224199;23;20346;-96
2023/07/19 13:26:35;;;;;;;1.55;0.98;;;;;;;;;;6223068;23;20004;-96
2023/07/19 13:29:01;;;;;;;2.67;0.70;;;;;;;;;;6247952;23;20008;-96
2023/07/19 13:31:28;;;;;;;1.70;1.02;;;;;;;;;;6248551;23;20004;-96
2023/07/19 13:33:56;;;;;;;1.17;0.95;;;;;;;;;;6220510;23;20012;-96
2023/07/19 13:36:28;;;;;;;1.83;0.80;;;;;;;;;;6247063;23;20012;-96
2023/07/19 13:38:54;;;;;;;1.98;0.70;;;;;;;;;;6221066;23;20039;-95
2023/07/19 13:41:21;;;;;;;2.58;0.98;;;;;;;;;;6219854;23;20505;-96
2023/07/19 13:43:47;;;;;;;1.65;1.20;;;;;;;;;;6220940;23;20087;-96
2023/07/19 13:46:13;;;;;;;1.48;0.63;;;;;;;;;;6221794;22;20012;-95
2023/07/19 13:48:46;;;;;;;1.55;0.75;;;;;;;;;;6217161;22;20036;-96
2023/07/19 13:51:13;;;;;;;3.15;0.60;;;;;;;;;;6219353;23;20335;-96
2023/07/19 13:53:39;;;;;;;1.35;0.75;;;;;;;;;;6217956;23;20035;-95
2023/07/19 13:56:06;;;;;;;1.20;0.90;;;;;;;;;;6217512;23;20410;-96
2023/07/19 13:58:33;;;;;;;1.90;0.75;;;;;;;;;;6220944;23;20069;-96
2023/07/19 14:00:59;;;;;;;1.42;0.98;;;;;;;;;;6218796;23;20018;-96
2023/07/19 14:03:25;;;;;;;1.02;0.68;;;;;;;;;;6243320;23;20015;-96
2023/07/19 14:05:54;;;;;;;1.00;0.60;;;;;;;;;;6242796;23;20012;-95
2023/07/19 14:08:20;;;;;;;1.42;0.60;;;;;;;;;;6216998;23;20019;-96
2023/07/19 14:10:46;;;;;;;1.27;0.70;;;;;;;;;;6244290;23;20287;-96
2023/07/19 14:13:13;;;;;;;0.45;0.45;;;;;;;;;;6242547;23;20290;-96
2023/07/19 14:15:39;;;;;;;0.73;0.68;;;;;;;;;;6244589;23;20070;-96
2023/07/19 14:18:05;;;;;;;0.77;0.60;;;;;;;;;;6243625;23;20039;-95
2023/07/19 14:20:31;;;;;;;1.23;0.80;;;;;;;;;;6241926;23;20012;-96
2023/07/19 14:22:57;;;;;;;0.73;0.70;;;;;;;;;;6243837;23;20083;-96
2023/07/19 14:25:23;;;;;;;1.00;0.70;;;;;;;;;;6244198;23;20011;-96
2023/07/19 14:27:49;;;;;;;0.60;0.60;;;;;;;;;;6243475;23;20015;-96
2023/07/19 14:30:15;;;;;;;0.90;0.47;;;;;;;;;;6217972;23;20008;-96
2023/07/19 14:32:42;;;;;;;0.73;0.65;;;;;;;;;;6218298;23;20091;-96
2023/07/19 14:35:09;;;;;;;3.53;1.17;;;;;;;;;;6242789;23;20015;-96
2023/07/19 14:37:36;;;;;;;1.13;0.85;;;;;;;;;;6242038;23;20008;-96
2023/07/19 14:40:03;;;;;;;4.80;1.05;;;;;;;;;;6244087;23;20099;-96
2023/07/19 14:42:29;;;;;;;5.28;4.75;;;;;;;;;;6242107;23;20066;-96
2023/07/19 14:44:57;;;;;;;0.75;0.70;;;;;;;;;;6243382;23;20039;-96
2023/07/19 14:47:24;;;;;;;0.50;0.50;;;;;;;;;;6216727;22;20027;-96
2023/07/19 14:49:50;;;;;;;1.17;0.65;;;;;;;;;;6217199;23;20023;-96
2023/07/19 14:52:18;;;;;;;0.88;0.50;;;;;;;;;;6230189;23;20004;-96
2023/07/19 14:54:44;;;;;;;1.50;0.70;;;;;;;;;;6238603;23;20031;-95
2023/07/19 14:57:10;;;;;;;1.77;0.80;;;;;;;;;;6237096;23;20004;-96
2023/07/19 14:59:36;;;;;;;1.70;0.75;;;;;;;;;;6238899;23;20062;-96
2023/07/19 15:02:02;;;;;;;0.40;0.40;;;;;;;;;;6239345;22;20020;-95
2023/07/19 15:04:28;;;;;;;0.88;0.68;;;;;;;;;;6238781;23;20050;-96
2023/07/19 15:06:55;;;;;;;1.67;0.98;;;;;;;;;;6239848;23;20012;-96
2023/07/19 15:09:21;;;;;;;1.30;0.55;;;;;;;;;;6238431;23;20066;-96
2023/07/19 15:11:47;;;;;;;0.90;0.80;;;;;;;;;;6215388;23;20012;-96
2023/07/19 15:14:14;;;;;;;2.03;0.75;;;;;;;;;;6240811;23;19996;-94
2023/07/19 15:16:40;;;;;;;1.20;0.82;;;;;;;;;;6215306;23;20008;-96
2023/07/19 15:19:06;;;;;;;1.42;0.95;;;;;;;;;;6214837;23;20078;-96
2023/07/19 15:21:34;;;;;;;0.63;0.50;;;;;;;;;;6241658;23;20041;-95
2023/07/19 15:24:01;;;;;;;1.88;1.40;;;;;;;;;;6216520;23;20039;-96
2023/07/19 15:26:27;;;;;;;4.50;2.75;;;;;;;;;;6217167;23;20099;-96
2023/07/19 15:28:53;;;;;;;3.83;1.30;;;;;;;;;;6213751;23;20128;-96
2023/07/19 15:31:19;;;;;;;1.90;0.90;;;;;;;;;;6215589;23;20008;-96
2023/07/19 15:33:45;;;;;;;0.93;0.73;;;;;;;;;;6216516;23;20012;-95
2023/07/19 15:36:12;;;;;;;0.70;0.70;;;;;;;;;;6227625;23;19996;-95
2023/07/19 15:38:40;;;;;;;1.45;0.77;;;;;;;;;;6259831;23;20018;-94
2023/07/19 15:41:06;;;;;;;0.77;0.55;;;;;;;;;;6256465;23;20019;-94
2023/07/19 15:43:32;;;;;;;1.05;0.70;;;;;;;;;;6257304;23;20004;-95
2023/07/19 15:45:59;;;;;;;0.65;0.50;;;;;;;;;;6228478;23;20016;-94
2023/07/19 15:48:25;;;;;;;3.75;0.90;;;;;;;;;;6228975;22;20095;-94
2023/07/19 15:50:52;;;;;;;1.42;0.80;;;;;;;;;;6229054;23;20011;-95
2023/07/19 15:53:18;;;;;;;2.40;1.00;;;;;;;;;;6255535;23;20008;-95
2023/07/19 15:55:44;;;;;;;1.48;0.63;;;;;;;;;;6219115;23;20028;-95